Time;durP1;ratioP1;P1;durP2;ratioP2;P2;SDS_P1;SDS_P2;PMS_P1;PMS_P2;Temp;Humidity;BMP_temperature;BMP_pressure;BME280_temperature;BME280_humidity;BME280_pressure;Samples;Min_cycle;Max_cycle;Signal;HPM_P1;HPM_P2
2023/01/05 00:01:16;;;;;;;2.13;1.70;;;11.70;99.90;;;;;;5041234;28;20190;-79
2023/01/05 00:03:42;;;;;;;2.90;1.97;;;11.70;99.90;;;;;;5044366;28;20633;-78
2023/01/05 00:06:16;;;;;;;2.13;1.80;;;;;;;;;;5037805;28;20201;-78
2023/01/05 00:08:43;;;;;;;2.13;1.70;;;;;;;;;;5044522;28;20283;-78
2023/01/05 00:22:29;;;;;;;1.83;1.50;;;;;;;;;;5046581;28;20177;-78
2023/01/05 00:25:09;;;;;;;2.20;1.30;;;;;;;;;;5033851;28;20704;-78
2023/01/05 00:27:35;;;;;;;2.30;1.70;;;;;;;;;;5040401;28;20241;-78
2023/01/05 00:30:02;;;;;;;3.00;1.80;;;11.80;99.90;;;;;;5044603;28;20231;-78
2023/01/05 00:32:28;;;;;;;2.73;1.57;;;;;;;;;;5038244;28;20773;-78
2023/01/05 00:34:55;;;;;;;1.60;1.33;;;;;;;;;;5027563;28;20272;-78
2023/01/05 00:37:26;;;;;;;2.70;1.60;;;;;;;;;;5029433;28;20249;-78
2023/01/05 00:39:53;;;;;;;1.73;1.50;;;;;;;;;;5035239;28;20884;-78
2023/01/05 00:42:20;;;;;;;1.97;1.60;;;;;;;;;;5020694;28;20185;-78
2023/01/05 00:44:46;;;;;;;3.17;1.47;;;;;;;;;;5042297;28;20177;-78
2023/01/05 00:47:12;;;;;;;1.90;1.60;;;;;;;;;;5025219;28;20189;-78
2023/01/05 00:49:39;;;;;;;1.67;1.30;;;;;;;;;;5042952;28;20205;-78
2023/01/05 00:52:05;;;;;;;1.70;1.30;;;;;;;;;;5027547;28;20254;-78
2023/01/05 00:54:31;;;;;;;3.87;2.30;;;;;;;;;;5029731;28;20173;-78
2023/01/05 00:56:58;;;;;;;1.50;1.40;;;;;;;;;;5046960;28;20284;-78
2023/01/05 00:59:24;;;;;;;1.80;1.27;;;;;;;;;;5045176;28;20186;-78
2023/01/05 01:01:51;;;;;;;1.23;1.13;;;;;;;;;;5028921;28;20182;-78
2023/01/05 01:04:18;;;;;;;2.27;1.30;;;;;;;;;;5038441;28;20205;-78
2023/01/05 01:06:45;;;;;;;1.53;1.30;;;;;;;;;;5041962;28;20205;-78
2023/01/05 01:09:12;;;;;;;2.60;1.30;;;;;;;;;;5018642;28;20237;-78
2023/01/05 01:11:38;;;;;;;1.83;1.47;;;11.80;99.90;;;;;;5036330;28;20193;-78
2023/01/05 01:14:06;;;;;;;1.80;1.20;;;11.80;99.90;;;;;;5047193;28;20242;-78
2023/01/05 01:16:32;;;;;;;1.60;1.50;;;11.80;99.90;;;;;;5031273;28;20206;-78
2023/01/05 01:18:58;;;;;;;2.10;1.50;;;11.80;99.90;;;;;;5047275;28;20178;-78
2023/01/05 01:21:24;;;;;;;1.47;1.37;;;11.80;99.90;;;;;;5048558;28;20181;-78
2023/01/05 01:23:50;;;;;;;1.40;1.30;;;11.90;99.90;;;;;;5042143;28;20269;-78
2023/01/05 01:26:16;;;;;;;2.80;1.70;;;11.90;99.90;;;;;;5047431;28;20813;-78
2023/01/05 01:28:42;;;;;;;1.43;1.33;;;;;;;;;;5049720;28;20209;-78
2023/01/05 01:31:08;;;;;;;2.07;1.57;;;;;;;;;;5042110;28;20254;-78
2023/01/05 01:33:38;;;;;;;2.13;1.57;;;;;;;;;;5049415;28;20185;-79
2023/01/05 01:36:04;;;;;;;1.87;1.47;;;;;;;;;;5048080;28;20704;-78
2023/01/05 01:38:32;;;;;;;1.50;1.40;;;;;;;;;;5049755;28;20185;-78
2023/01/05 01:40:58;;;;;;;1.30;1.20;;;;;;;;;;5045378;28;20212;-79
2023/01/05 01:43:42;;;;;;;1.93;1.60;;;;;;;;;;5035384;28;20788;-78
2023/01/05 01:46:08;;;;;;;1.40;1.20;;;11.90;99.90;;;;;;5043169;28;20599;-78
2023/01/05 01:48:36;;;;;;;1.50;1.20;;;;;;;;;;5037656;28;20224;-78
2023/01/05 01:51:06;;;;;;;1.93;1.20;;;12.00;99.90;;;;;;5038373;28;20189;-78
2023/01/05 01:53:41;;;;;;;1.23;1.10;;;12.10;99.90;;;;;;5036049;28;20171;-78
2023/01/05 01:56:09;;;;;;;1.33;1.23;;;;;;;;;;5037157;28;20854;-78
2023/01/05 01:58:36;;;;;;;1.87;1.40;;;;;;;;;;5022868;28;20198;-78
2023/01/05 02:01:05;;;;;;;1.40;1.30;;;12.10;99.90;;;;;;5040505;28;20296;-79
2023/01/05 02:03:33;;;;;;;1.97;1.10;;;12.20;99.90;;;;;;5031635;28;20579;-78
2023/01/05 02:06:00;;;;;;;1.30;1.10;;;;;;;;;;5045746;28;20516;-78
2023/01/05 02:08:32;;;;;;;3.20;1.23;;;;;;;;;;5044455;28;20214;-78
2023/01/05 02:11:17;;;;;;;1.20;0.93;;;;;;;;;;5049155;28;20683;-78
2023/01/05 02:14:01;;;;;;;1.00;0.90;;;;;;;;;;5033970;28;20190;-78
2023/01/05 02:16:46;;;;;;;1.10;0.83;;;;;;;;;;5039333;28;20692;-78
2023/01/05 02:19:13;;;;;;;1.70;0.90;;;;;;;;;;5041053;28;20602;-78
2023/01/05 02:22:12;;;;;;;2.00;0.90;;;12.20;99.90;;;;;;5036029;28;20194;-78
2023/01/05 02:24:53;;;;;;;1.50;1.00;;;;;;;;;;5047525;28;20186;-78
2023/01/05 02:27:45;;;;;;;1.00;0.80;;;;;;;;;;5046659;28;20556;-78
2023/01/05 02:30:32;;;;;;;1.10;0.90;;;;;;;;;;5044087;28;20193;-78
2023/01/05 02:33:11;;;;;;;2.03;1.10;;;;;;;;;;5044846;28;20252;-78
2023/01/05 02:35:43;;;;;;;1.67;1.03;;;;;;;;;;5065206;28;20211;-78
2023/01/05 02:38:17;;;;;;;0.80;0.80;;;;;;;;;;5042731;28;20277;-78
2023/01/05 02:40:53;;;;;;;1.40;0.93;;;12.20;99.90;;;;;;5052283;28;20637;-78
2023/01/05 02:43:20;;;;;;;1.10;1.00;;;12.10;99.90;;;;;;5040631;28;20201;-78
2023/01/05 02:45:49;;;;;;;2.17;0.90;;;;;;;;;;5036789;28;20210;-78
2023/01/05 02:48:18;;;;;;;0.90;0.90;;;;;;;;;;5037282;28;20288;-79
2023/01/05 02:50:59;;;;;;;1.03;0.93;;;;;;;;;;5036600;28;20440;-78
2023/01/05 02:53:37;;;;;;;3.13;1.00;;;;;;;;;;5020926;28;20199;-78
2023/01/05 02:56:09;;;;;;;2.60;1.30;;;;;;;;;;5039456;28;20201;-78
2023/01/05 02:58:40;;;;;;;1.10;1.00;;;;;;;;;;5048247;28;20688;-78
2023/01/05 03:01:11;;;;;;;1.50;1.00;;;;;;;;;;5024881;28;20348;-78
2023/01/05 03:03:48;;;;;;;3.60;1.50;;;12.00;99.90;;;;;;5042916;28;20757;-79
2023/01/05 03:06:24;;;;;;;4.50;2.50;;;12.00;99.90;;;;;;5037293;28;20880;-78
2023/01/05 03:08:52;;;;;;;5.00;2.10;;;;;;;;;;5045708;28;20681;-79
2023/01/05 03:14:33;;;;;;;2.87;1.70;;;12.00;99.90;;;;;;5022742;28;20734;-79
2023/01/05 03:17:00;;;;;;;2.73;1.90;;;12.00;99.90;;;;;;5044509;28;20239;-78
2023/01/05 03:19:35;;;;;;;1.87;1.60;;;12.00;99.90;;;;;;5037569;28;20178;-79
2023/01/05 03:36:38;;;;;;;2.87;1.30;;;;;;;;;;5046193;28;20205;-79
2023/01/05 03:39:08;;;;;;;1.03;1.00;;;;;;;;;;5045443;28;20226;-78
2023/01/05 03:41:39;;;;;;;1.10;1.00;;;;;;;;;;5042322;28;20656;-79
2023/01/05 03:44:07;;;;;;;0.90;0.90;;;11.90;99.90;;;;;;5033646;28;20182;-78
2023/01/05 03:46:39;;;;;;;1.03;0.80;;;;;;;;;;5022882;28;20859;-79
2023/01/05 03:49:06;;;;;;;0.80;0.80;;;11.90;99.90;;;;;;5020090;28;20213;-78
2023/01/05 03:51:35;;;;;;;2.00;0.80;;;11.90;99.90;;;;;;5059412;28;20182;-78
2023/01/05 03:54:02;;;;;;;1.13;0.80;;;;;;;;;;5024415;28;20647;-78
2023/01/05 03:56:32;;;;;;;1.00;1.00;;;;;;;;;;5041157;28;20206;-78
2023/01/05 03:58:58;;;;;;;1.37;1.10;;;;;;;;;;5025518;28;20182;-78
2023/01/05 04:01:26;;;;;;;1.40;1.30;;;;;;;;;;5041139;28;20178;-78
2023/01/05 04:03:53;;;;;;;3.00;1.10;;;11.90;99.90;;;;;;5039556;28;20190;-78
2023/01/05 04:06:19;;;;;;;2.53;1.07;;;;;;;;;;5037135;28;20634;-78
2023/01/05 04:08:50;;;;;;;2.43;1.00;;;;;;;;;;5039518;28;20218;-78
2023/01/05 04:11:24;;;;;;;2.43;1.00;;;11.90;99.90;;;;;;5036545;28;20187;-79
2023/01/05 04:13:56;;;;;;;5.30;1.23;;;11.90;99.90;;;;;;5039573;28;20180;-78
2023/01/05 04:16:24;;;;;;;7.67;1.50;;;;;;;;;;5038853;28;20224;-78
2023/01/05 04:18:52;;;;;;;7.77;1.73;;;;;;;;;;5023581;28;20641;-78
2023/01/05 04:21:21;;;;;;;7.20;1.60;;;;;;;;;;5034192;28;20178;-78
2023/01/05 04:23:50;;;;;;;7.57;1.70;;;;;;;;;;5028154;28;20274;-78
2023/01/05 04:26:20;;;;;;;7.50;1.87;;;;;;;;;;5040997;28;20206;-78
2023/01/05 04:28:51;;;;;;;11.83;2.10;;;;;;;;;;5035208;28;20218;-78
2023/01/05 04:31:20;;;;;;;10.40;1.93;;;;;;;;;;5057562;28;20186;-78
2023/01/05 04:33:48;;;;;;;9.20;1.83;;;;;;;;;;5027103;28;20626;-78
2023/01/05 04:36:23;;;;;;;7.87;2.13;;;;;;;;;;5059671;28;20225;-78
2023/01/05 04:38:52;;;;;;;11.80;2.13;;;;;;;;;;5041055;28;20225;-78
2023/01/05 04:41:20;;;;;;;6.87;1.80;;;;;;;;;;5041557;28;20231;-78
2023/01/05 04:43:50;;;;;;;9.73;2.43;;;;;;;;;;5046782;28;20182;-78
2023/01/05 04:46:17;;;;;;;9.30;2.10;;;;;;;;;;5022406;28;20218;-78
2023/01/05 04:48:50;;;;;;;8.97;1.97;;;;;;;;;;5038382;28;20194;-78
2023/01/05 04:51:19;;;;;;;7.43;2.07;;;;;;;;;;5041550;28;20182;-78
2023/01/05 04:53:46;;;;;;;13.07;2.20;;;;;;;;;;5041012;28;20178;-78
2023/01/05 04:56:19;;;;;;;8.10;1.90;;;;;;;;;;5043805;28;20201;-78
2023/01/05 04:58:48;;;;;;;7.23;2.20;;;;;;;;;;5037741;28;20277;-78
2023/01/05 05:01:15;;;;;;;10.80;2.00;;;;;;;;;;5031532;28;20178;-78
2023/01/05 05:03:46;;;;;;;10.43;2.73;;;;;;;;;;5029810;28;20190;-78
2023/01/05 05:06:17;;;;;;;8.13;1.80;;;;;;;;;;5043435;28;20197;-78
2023/01/05 05:08:45;;;;;;;9.50;1.97;;;;;;;;;;5033197;28;20206;-78
2023/01/05 05:11:15;;;;;;;11.10;2.47;;;;;;;;;;5039726;28;20178;-78
2023/01/05 05:13:53;;;;;;;10.13;2.00;;;;;;;;;;5037881;28;20174;-78
2023/01/05 05:16:20;;;;;;;12.73;2.37;;;;;;;;;;5045412;28;20252;-79
2023/01/05 05:18:48;;;;;;;9.37;2.37;;;;;;;;;;5040724;28;20193;-78
2023/01/05 05:21:20;;;;;;;11.13;2.00;;;;;;;;;;5001863;28;20403;-78
2023/01/05 05:23:47;;;;;;;10.90;2.57;;;;;;;;;;5037765;28;20277;-78
2023/01/05 05:26:14;;;;;;;9.53;1.93;;;;;;;;;;5040132;28;20211;-78
2023/01/05 05:28:46;;;;;;;10.07;2.40;;;;;;;;;;5035512;28;20300;-78
2023/01/05 05:31:16;;;;;;;8.50;2.20;;;;;;;;;;5027171;28;20183;-78
2023/01/05 05:33:43;;;;;;;12.50;2.20;;;;;;;;;;5037890;28;20178;-78
2023/01/05 05:36:10;;;;;;;8.17;2.10;;;;;;;;;;5044001;28;20209;-78
2023/01/05 05:38:37;;;;;;;8.30;2.10;;;;;;;;;;5045826;28;20193;-78
2023/01/05 05:41:06;;;;;;;8.27;1.77;;;;;;;;;;5047941;28;20191;-78
2023/01/05 05:43:36;;;;;;;10.20;2.00;;;;;;;;;;5045795;28;20182;-78
2023/01/05 05:46:03;;;;;;;10.50;2.37;;;;;;;;;;5046688;28;20212;-78
2023/01/05 05:48:30;;;;;;;6.37;2.00;;;;;;;;;;5046263;28;20200;-78
2023/01/05 05:50:57;;;;;;;11.33;2.07;;;;;;;;;;5043644;28;20189;-78
2023/01/05 05:53:24;;;;;;;9.17;2.20;;;;;;;;;;5046459;28;20170;-78
2023/01/05 05:55:54;;;;;;;9.97;2.33;;;;;;;;;;5046217;28;20201;-78
2023/01/05 05:58:23;;;;;;;9.53;2.23;;;;;;;;;;5042130;28;20212;-78
2023/01/05 06:00:50;;;;;;;10.63;2.27;;;;;;;;;;5044730;28;20194;-78
2023/01/05 06:03:16;;;;;;;10.47;2.23;;;;;;;;;;5021723;28;20185;-78
2023/01/05 06:05:46;;;;;;;10.87;2.33;;;;;;;;;;5032367;28;20229;-78
2023/01/05 06:08:13;;;;;;;7.80;2.20;;;;;;;;;;5043472;28;20210;-78
2023/01/05 06:10:40;;;;;;;10.57;2.10;;;;;;;;;;5039490;28;20288;-78
2023/01/05 06:13:10;;;;;;;10.80;2.35;;;;;;;;;;5055655;28;20377;-78
2023/01/05 06:15:36;;;;;;;7.43;2.00;;;;;;;;;;5044163;28;20218;-78
2023/01/05 06:18:09;;;;;;;8.70;1.93;;;;;;;;;;5039324;28;20187;-78
2023/01/05 06:20:36;;;;;;;12.67;2.33;;;;;;;;;;5038616;28;20170;-78
2023/01/05 06:23:03;;;;;;;6.90;1.90;;;;;;;;;;5038579;28;20215;-78
2023/01/05 06:25:33;;;;;;;7.87;2.20;;;;;;;;;;5041506;28;20198;-78
2023/01/05 06:28:00;;;;;;;13.80;2.20;;;;;;;;;;5035861;28;20202;-78
2023/01/05 06:30:27;;;;;;;10.13;2.50;;;;;;;;;;5038791;28;20237;-79
2023/01/05 06:32:54;;;;;;;9.70;2.40;;;;;;;;;;5045355;28;20182;-78
2023/01/05 06:35:23;;;;;;;8.87;2.37;;;;;;;;;;5041442;28;20209;-78
2023/01/05 06:37:50;;;;;;;11.83;2.23;;;;;;;;;;5043637;28;20178;-78
2023/01/05 06:40:17;;;;;;;6.77;1.90;;;;;;;;;;5042980;28;20178;-79
2023/01/05 06:42:43;;;;;;;8.47;2.00;;;;;;;;;;5045808;28;20177;-78
2023/01/05 06:45:20;;;;;;;10.52;2.70;;;;;;;;;;5043355;28;21034;-78
2023/01/05 06:47:47;;;;;;;9.93;2.33;;;;;;;;;;5040965;28;20198;-78
2023/01/05 06:50:16;;;;;;;9.82;2.63;;;;;;;;;;5023575;28;20443;-79
2023/01/05 06:52:43;;;;;;;11.07;2.30;;;;;;;;;;5041155;28;20167;-78
2023/01/05 06:55:12;;;;;;;9.57;2.40;;;;;;;;;;5043587;28;20190;-78
2023/01/05 06:57:44;;;;;;;12.67;2.37;;;;;;;;;;5044206;28;20232;-78
2023/01/05 07:00:11;;;;;;;13.90;2.70;;;;;;;;;;5035729;28;20177;-78
2023/01/05 07:02:51;;;;;;;6.77;2.00;;;;;;;;;;5037147;28;20209;-78
2023/01/05 07:05:23;;;;;;;7.70;2.40;;;;;;;;;;5023646;28;20500;-78
2023/01/05 07:07:58;;;;;;;11.13;2.33;;;;;;;;;;5041468;28;20623;-78
2023/01/05 07:10:28;;;;;;;12.27;2.47;;;;;;;;;;5041050;28;20186;-78
2023/01/05 07:12:57;;;;;;;11.20;2.72;;;;;;;;;;5042758;28;20455;-78
2023/01/05 07:15:23;;;;;;;9.30;2.43;;;;;;;;;;5039101;28;20236;-79
2023/01/05 07:17:57;;;;;;;10.97;2.50;;;;;;;;;;5036828;28;20262;-78
2023/01/05 07:20:23;;;;;;;15.07;2.83;;;;;;;;;;5031204;28;20174;-78
2023/01/05 07:22:50;;;;;;;10.50;2.60;;;;;;;;;;5045335;28;20190;-77
2023/01/05 07:25:17;;;;;;;10.30;2.50;;;;;;;;;;5038768;28;20227;-77
2023/01/05 07:27:43;;;;;;;9.50;2.70;;;;;;;;;;5037941;28;20210;-77
2023/01/05 07:30:13;;;;;;;11.17;2.90;;;;;;;;;;5030339;28;20225;-77
2023/01/05 07:32:43;;;;;;;9.27;2.70;;;;;;;;;;5043654;28;20178;-77
2023/01/05 07:35:13;;;;;;;8.70;2.60;;;;;;;;;;5034862;28;20193;-75
2023/01/05 07:37:42;;;;;;;13.60;2.70;;;;;;;;;;5048603;28;20170;-73
2023/01/05 07:40:11;;;;;;;8.30;2.53;;;;;;;;;;5031212;28;20317;-77
2023/01/05 07:42:38;;;;;;;10.60;2.70;;;;;;;;;;5038949;28;20192;-75
2023/01/05 07:45:05;;;;;;;10.17;2.17;;;;;;;;;;5039792;28;20328;-75
2023/01/05 07:47:32;;;;;;;11.23;2.40;;;;;;;;;;5037280;28;20198;-75
2023/01/05 07:49:59;;;;;;;12.27;2.30;;;;;;;;;;5035520;28;20601;-74
2023/01/05 07:52:28;;;;;;;13.53;2.90;;;;;;;;;;5035352;28;20661;-75
2023/01/05 07:54:57;;;;;;;9.83;2.50;;;;;;;;;;5035738;28;20334;-75
2023/01/05 07:57:24;;;;;;;8.60;2.40;;;;;;;;;;5033289;28;20220;-75
2023/01/05 07:59:53;;;;;;;10.00;2.30;;;;;;;;;;5036376;28;20243;-74
2023/01/05 08:02:22;;;;;;;10.30;2.50;;;;;;;;;;5035813;28;20170;-75
2023/01/05 08:04:49;;;;;;;10.30;2.30;;;;;;;;;;5034788;28;20272;-74
2023/01/05 08:07:17;;;;;;;10.90;2.40;;;;;;;;;;5033951;28;20186;-74
2023/01/05 08:12:30;;;;;;;10.33;2.30;;;;;;;;;;5033945;28;20685;-76
2023/01/05 08:15:00;;;;;;;7.00;1.90;;;;;;;;;;5034442;28;20232;-75
2023/01/05 08:17:26;;;;;;;7.53;2.20;;;;;;;;;;5029831;28;20194;-75
2023/01/05 08:19:53;;;;;;;8.93;2.10;;;;;;;;;;5035354;28;20178;-75
2023/01/05 08:22:20;;;;;;;9.67;2.27;;;;;;;;;;5037397;28;20578;-75
2023/01/05 08:24:51;;;;;;;10.43;2.43;;;;;;;;;;5036743;28;20178;-75
2023/01/05 08:27:18;;;;;;;8.17;2.30;;;;;;;;;;5045295;28;20285;-76
2023/01/05 08:29:44;;;;;;;9.80;2.50;;;;;;;;;;5035762;28;20289;-74
2023/01/05 08:32:11;;;;;;;8.43;2.23;;;;;;;;;;5032489;28;20174;-74
2023/01/05 08:34:37;;;;;;;8.27;2.10;;;;;;;;;;5035688;28;20543;-74
2023/01/05 08:37:03;;;;;;;11.70;2.37;;;;;;;;;;5033125;28;20677;-73
2023/01/05 08:39:29;;;;;;;11.27;2.57;;;;;;;;;;5034950;28;20205;-74
2023/01/05 08:41:55;;;;;;;11.60;2.50;;;;;;;;;;5015946;28;20183;-73
2023/01/05 08:44:21;;;;;;;8.43;2.13;;;;;;;;;;5033373;28;20552;-73
2023/01/05 08:46:47;;;;;;;7.00;2.27;;;;;;;;;;5032965;28;20205;-73
2023/01/05 08:49:14;;;;;;;8.57;2.27;;;;;;;;;;5036115;28;20217;-73
2023/01/05 08:51:41;;;;;;;9.33;2.20;;;;;;;;;;5034635;28;20217;-72
2023/01/05 08:54:07;;;;;;;10.30;2.13;;;;;;;;;;5034459;28;20193;-72
2023/01/05 08:56:33;;;;;;;9.30;2.13;;;;;;;;;;5034608;28;20269;-72
2023/01/05 08:58:59;;;;;;;9.97;2.33;;;;;;;;;;5035078;28;20185;-72
2023/01/05 09:01:26;;;;;;;11.30;2.47;;;;;;;;;;5033386;28;20261;-72
2023/01/05 09:03:52;;;;;;;13.10;2.40;;;;;;;;;;5035260;28;20197;-72
2023/01/05 09:06:18;;;;;;;9.33;2.50;;;;;;;;;;5036795;28;20808;-72
2023/01/05 09:08:45;;;;;;;13.30;2.40;;;;;;;;;;5038717;28;20227;-72
2023/01/05 09:11:13;;;;;;;12.10;2.57;;;;;;;;;;5038992;28;20210;-72
2023/01/05 09:13:40;;;;;;;12.53;2.60;;;;;;;;;;5037695;28;20635;-76
2023/01/05 09:16:07;;;;;;;8.17;2.13;;;;;;;;;;5036504;28;20205;-75
2023/01/05 09:18:34;;;;;;;14.23;2.60;;;;;;;;;;5020657;28;20236;-74
2023/01/05 09:21:00;;;;;;;8.87;2.47;;;;;;;;;;5035831;28;20688;-75
2023/01/05 09:23:45;;;;;;;8.77;2.30;;;;;;;;;;5031785;28;20196;-73
2023/01/05 09:26:12;;;;;;;10.90;2.50;;;;;;;;;;5035269;28;20217;-73
2023/01/05 09:28:38;;;;;;;9.77;2.70;;;;;;;;;;5035444;28;20205;-73
2023/01/05 09:31:30;;;;;;;10.77;2.93;;;;;;;;;;5038733;28;20660;-73
2023/01/05 09:33:57;;;;;;;9.80;2.40;;;;;;;;;;5030490;28;20656;-73
2023/01/05 09:36:24;;;;;;;13.90;2.93;;;;;;;;;;5039023;28;20274;-73
2023/01/05 09:38:51;;;;;;;10.47;2.47;;;;;;;;;;5044109;28;20267;-73
2023/01/05 09:41:23;;;;;;;9.60;2.20;;;;;;;;;;5042832;28;20182;-73
2023/01/05 09:43:51;;;;;;;8.80;2.40;;;;;;;;;;5045970;28;20183;-73
2023/01/05 09:46:22;;;;;;;11.83;2.60;;;;;;;;;;5042506;28;20754;-73
2023/01/05 09:48:51;;;;;;;10.37;2.40;;;;;;;;;;5047570;28;20511;-73
2023/01/05 09:51:18;;;;;;;12.80;2.70;;;;;;;;;;5041215;28;20167;-73
2023/01/05 09:53:44;;;;;;;12.47;2.93;;;;;;;;;;5045396;28;20615;-73
2023/01/05 09:56:17;;;;;;;14.27;2.90;;;;;;;;;;5043870;28;20201;-73
2023/01/05 09:58:44;;;;;;;13.37;2.83;;;;;;;;;;5042360;28;20258;-73
2023/01/05 10:01:13;;;;;;;11.87;2.80;;;;;;;;;;5042661;28;20183;-73
2023/01/05 10:03:42;;;;;;;10.47;2.57;;;;;;;;;;5042245;28;20260;-73
2023/01/05 10:06:13;;;;;;;12.47;2.63;;;;;;;;;;5041898;28;20216;-73
2023/01/05 10:08:42;;;;;;;12.60;2.73;;;;;;;;;;5044379;28;20289;-73
2023/01/05 10:14:09;;;;;;;10.73;2.70;;;;;;;;;;5046618;28;20194;-73
2023/01/05 10:16:35;;;;;;;10.33;2.70;;;;;;;;;;5042985;28;20205;-73
2023/01/05 10:19:02;;;;;;;12.37;3.00;;;;;;;;;;5029527;28;20224;-73
2023/01/05 10:21:43;;;;;;;11.70;2.73;;;;;;;;;;5041319;28;20201;-73
2023/01/05 10:24:15;;;;;;;9.10;2.73;;;;;;;;;;5040476;28;20239;-73
2023/01/05 10:26:45;;;;;;;14.03;3.37;;;;;;;;;;5038418;28;20206;-74
2023/01/05 10:29:13;;;;;;;10.60;3.00;;;;;;;;;;5047140;28;20213;-75
2023/01/05 10:31:55;;;;;;;15.73;3.17;;;;;;;;;;5044718;28;20190;-80
2023/01/05 10:34:23;;;;;;;12.73;2.90;;;;;;;;;;5043743;28;20178;-74
2023/01/05 10:36:52;;;;;;;12.03;2.63;;;;;;;;;;5043808;28;20247;-73
2023/01/05 10:39:33;;;;;;;15.07;2.83;;;;;;;;;;5040360;28;20217;-72
2023/01/05 10:42:07;;;;;;;11.07;2.67;;;;;;;;;;5041411;28;20504;-74
2023/01/05 10:44:47;;;;;;;14.33;3.00;;;;;;;;;;5040274;28;20204;-75
2023/01/05 10:47:14;;;;;;;15.33;3.17;;;;;;;;;;5046482;28;20190;-73
2023/01/05 10:49:44;;;;;;;11.00;2.67;;;;;;;;;;5038990;28;20206;-74
2023/01/05 10:52:16;;;;;;;13.80;2.73;;;;;;;;;;5044081;28;20657;-75
2023/01/05 10:54:46;;;;;;;14.97;2.90;;;;;;;;;;5048766;28;20541;-75
2023/01/05 10:57:30;;;;;;;14.20;3.03;;;;;;;;;;5038474;28;20213;-75
2023/01/05 11:00:06;;;;;;;13.53;3.03;;;;;;;;;;5038222;28;20183;-74
2023/01/05 11:02:35;;;;;;;16.67;3.17;;;;;;;;;;5039683;28;20187;-74
2023/01/05 11:05:04;;;;;;;12.77;3.10;;;;;;;;;;5039894;28;20210;-75
2023/01/05 11:07:30;;;;;;;13.40;2.97;;;;;;;;;;5058555;28;20194;-74
2023/01/05 11:09:56;;;;;;;11.33;3.00;;;;;;;;;;5042338;28;20195;-75
2023/01/05 11:12:24;;;;;;;15.77;3.03;;;;;;;;;;5040246;28;20175;-75
2023/01/05 11:14:56;;;;;;;15.73;3.07;;;;;;;;;;5040274;28;20945;-75
2023/01/05 11:17:24;;;;;;;12.37;3.03;;;;;;;;;;5039612;28;20253;-75
2023/01/05 11:19:51;;;;;;;11.33;2.73;;;;;;;;;;5041661;28;20190;-75
2023/01/05 11:22:33;;;;;;;10.73;2.80;;;;;;;;;;5041499;28;20661;-74
2023/01/05 11:25:18;;;;;;;12.63;3.43;;;;;;;;;;5040685;28;20622;-75
2023/01/05 11:27:45;;;;;;;15.57;3.37;;;;;;;;;;5039319;28;20197;-74
2023/01/05 11:30:14;;;;;;;12.40;2.73;;;;;;;;;;5035083;28;20330;-75
2023/01/05 11:32:41;;;;;;;12.60;3.40;;;;;;;;;;5039860;28;20194;-75
2023/01/05 11:35:25;;;;;;;8.03;2.33;;;;;;;;;;5041696;28;20580;-74
2023/01/05 11:37:52;;;;;;;13.27;2.80;;;;;;;;;;5039782;28;20236;-75
2023/01/05 11:40:19;;;;;;;11.90;3.10;;;;;;;;;;5042058;28;20188;-76
2023/01/05 11:42:45;;;;;;;12.33;2.77;;;;;;;;;;5042845;28;20193;-74
2023/01/05 11:45:47;;;;;;;13.10;3.00;;;;;;;;;;5038513;28;20206;-75
2023/01/05 11:48:17;;;;;;;11.33;3.00;;;;;;;;;;4954722;28;20231;-78
2023/01/05 11:50:46;;;;;;;13.53;3.10;;;;;;;;;;5025509;28;20190;-77
2023/01/05 11:53:23;;;;;;;14.73;2.80;;;;;;;;;;5043419;28;20185;-80
2023/01/05 11:56:00;;;;;;;13.93;3.13;;;;;;;;;;5033320;28;20202;-80
2023/01/05 11:58:30;;;;;;;14.47;3.00;;;;;;;;;;5035830;28;20186;-80
2023/01/05 12:00:56;;;;;;;13.63;2.90;;;;;;;;;;5034371;28;20256;-79
2023/01/05 12:03:41;;;;;;;11.97;3.40;;;;;;;;;;5037803;28;20202;-81
2023/01/05 12:06:16;;;;;;;10.87;2.87;;;;;;;;;;5050052;28;20197;-81
2023/01/05 12:08:52;;;;;;;13.50;3.07;;;;;;;;;;5039161;28;20247;-81
2023/01/05 12:11:19;;;;;;;11.13;3.00;;;;;;;;;;5046142;28;20182;-80
2023/01/05 12:13:53;;;;;;;11.53;2.70;;;;;;;;;;5027437;28;20703;-75
2023/01/05 12:16:22;;;;;;;16.80;3.03;;;;;;;;;;5038007;28;20217;-76
2023/01/05 12:18:57;;;;;;;12.63;2.43;;;;;;;;;;5032056;28;20233;-77
2023/01/05 12:21:24;;;;;;;14.60;2.80;;;;;;;;;;5036762;28;20206;-83
2023/01/05 12:24:09;;;;;;;11.73;3.10;;;;;;;;;;5041175;28;20217;-76
2023/01/05 12:26:46;;;;;;;10.40;3.03;;;;;;;;;;5038156;28;20283;-79
2023/01/05 12:29:33;;;;;;;12.33;3.10;;;;;;;;;;5038723;28;20229;-79
2023/01/05 12:32:21;;;;;;;12.30;3.20;;;;;;;;;;5038632;28;20189;-78
2023/01/05 12:35:02;;;;;;;17.07;2.90;;;;;;;;;;5037172;28;20273;-79
2023/01/05 12:37:50;;;;;;;14.70;3.60;;;;;;;;;;5035433;28;20220;-78
2023/01/05 12:40:24;;;;;;;12.63;2.87;;;;;;;;;;5038648;28;20204;-78
2023/01/05 12:42:53;;;;;;;15.00;3.27;;;;;;;;;;5038435;28;20186;-78
2023/01/05 12:45:28;;;;;;;12.27;2.80;;;;;;;;;;5048565;28;20541;-78
2023/01/05 12:47:59;;;;;;;9.97;2.80;;;;;;;;;;5049647;28;20185;-78
2023/01/05 12:50:29;;;;;;;13.10;2.70;;;;;;;;;;5046750;28;20726;-78
2023/01/05 12:53:01;;;;;;;14.33;3.17;;;;;;;;;;5046441;28;20196;-78
2023/01/05 12:55:59;;;;;;;13.47;3.00;;;;;;;;;;5049795;28;20225;-75
2023/01/05 12:58:32;;;;;;;12.53;3.00;;;;;;;;;;5019767;28;20236;-76
2023/01/05 13:00:59;;;;;;;12.63;2.90;;;;;;;;;;5034518;28;20186;-77
2023/01/05 13:03:29;;;;;;;12.33;2.90;;;;;;;;;;5031242;28;20649;-74
2023/01/05 13:05:59;;;;;;;11.37;2.70;;;;;;;;;;5036104;28;20209;-75
2023/01/05 13:08:29;;;;;;;10.80;2.70;;;;;;;;;;5021960;28;20614;-75
2023/01/05 13:10:55;;;;;;;10.70;2.70;;;;;;;;;;5044825;28;20185;-74
2023/01/05 13:13:29;;;;;;;14.20;3.40;;;;;;;;;;5046842;28;20649;-74
2023/01/05 13:16:02;;;;;;;13.30;2.93;;;;;;;;;;5047727;28;20217;-74
2023/01/05 13:18:29;;;;;;;15.00;3.37;;;;;;;;;;5042571;28;20243;-74
2023/01/05 13:21:03;;;;;;;8.93;2.70;;;;;;;;;;5025816;28;20240;-74
2023/01/05 13:23:34;;;;;;;14.17;3.07;;;;;;;;;;5033015;28;20193;-74
2023/01/05 13:26:03;;;;;;;16.93;2.93;;;;;;;;;;5040068;28;20197;-74
2023/01/05 13:28:30;;;;;;;15.37;3.00;;;;;;;;;;5044866;28;20203;-74
2023/01/05 13:31:04;;;;;;;13.73;3.43;;;;;;;;;;5038629;28;20614;-76
2023/01/05 13:33:42;;;;;;;15.23;3.50;;;;;;;;;;5046855;28;20180;-74
2023/01/05 13:36:27;;;;;;;16.37;3.20;;;;;;;;;;5061501;28;20205;-74
2023/01/05 13:39:09;;;;;;;11.70;3.50;;;;;;;;;;5039621;28;20186;-74
2023/01/05 13:41:43;;;;;;;14.03;3.27;;;;;;;;;;5040510;28;20195;-74
2023/01/05 13:44:15;;;;;;;13.17;2.90;;;;;;;;;;5036364;28;20175;-74
2023/01/05 13:46:41;;;;;;;13.53;3.07;;;;;;;;;;5046693;28;20210;-74
2023/01/05 13:49:14;;;;;;;11.67;3.17;;;;;;;;;;5037387;28;20219;-74
2023/01/05 13:51:50;;;;;;;13.83;3.00;;;;;;;;;;5033865;28;20262;-74
2023/01/05 13:54:45;;;;;;;14.07;3.10;;;;;;;;;;5041811;28;20177;-74
2023/01/05 13:57:15;;;;;;;13.93;3.50;;;;;;;;;;5025776;28;20214;-74
2023/01/05 13:59:42;;;;;;;18.37;3.33;;;;;;;;;;5043724;28;20236;-74
2023/01/05 14:02:26;;;;;;;17.70;3.27;;;;;;;;;;5035170;28;20271;-74
2023/01/05 14:04:52;;;;;;;13.93;2.60;;;;;;;;;;5036973;28;20218;-74
2023/01/05 14:07:19;;;;;;;15.70;3.50;;;;;;;;;;5039567;28;20190;-74
2023/01/05 14:09:47;;;;;;;12.67;3.30;;;;;;;;;;5039505;28;20199;-74
2023/01/05 14:12:16;;;;;;;14.93;3.03;;;;;;;;;;5042281;28;20555;-74
2023/01/05 14:15:02;;;;;;;11.83;2.90;;;;;;;;;;5045482;28;20221;-74
2023/01/05 14:17:48;;;;;;;10.73;3.07;;;;;;;;;;5036442;28;20217;-74
2023/01/05 14:20:32;;;;;;;11.60;2.97;;;;;;;;;;5043596;28;20186;-74
2023/01/05 14:22:59;;;;;;;14.40;3.37;;;;;;;;;;5036973;28;20635;-74
2023/01/05 14:25:38;;;;;;;11.87;2.80;;;;;;;;;;5042724;28;20654;-74
2023/01/05 14:28:16;;;;;;;14.20;3.53;;;;;;;;;;5039186;28;20221;-74
2023/01/05 14:30:42;;;;;;;13.50;3.37;;;;;;;;;;5093799;22;20320;-74
2023/01/05 14:33:09;;;;;;;14.77;2.90;;;;;;;;;;5063418;28;20262;-73
2023/01/05 14:35:36;;;;;;;10.83;2.60;;;;;;;;;;5060711;28;20202;-75
2023/01/05 14:38:04;;;;;;;10.03;2.70;;;;;;;;;;5061655;28;20640;-75
2023/01/05 14:40:41;;;;;;;12.93;3.40;;;;;;;;;;5063544;28;20202;-75
2023/01/05 14:43:21;;;;;;;12.67;3.30;;;;;;;;;;5049412;28;20311;-74
2023/01/05 14:45:59;;;;;;;14.70;3.20;;;;;;;;;;5044201;28;20281;-73
2023/01/05 14:48:31;;;;;;;13.03;2.90;;;;;;;;;;5036124;28;20252;-75
2023/01/05 14:51:18;;;;;;;10.17;3.10;;;;;;;;;;5011529;28;20690;-74
2023/01/05 14:53:46;;;;;;;13.13;3.57;;;;;;;;;;5040709;28;20594;-74
2023/01/05 14:56:12;;;;;;;11.10;2.87;;;;;;;;;;5048627;28;20178;-75
2023/01/05 14:58:40;;;;;;;10.23;3.07;;;;;;;;;;5049153;28;20182;-75
2023/01/05 15:01:15;;;;;;;15.50;3.20;;;;;;;;;;5043564;28;20198;-73
2023/01/05 15:03:50;;;;;;;13.50;3.30;;;;;;;;;;5041018;28;20242;-74
2023/01/05 15:06:22;;;;;;;9.67;2.10;;;;;;;;;;5043268;28;20713;-75
2023/01/05 15:09:07;;;;;;;12.17;2.77;;;;;;;;;;5048502;28;20217;-74
2023/01/05 15:11:34;;;;;;;12.60;3.20;;;;;;;;;;5047015;28;20234;-75
2023/01/05 15:16:44;;;;;;;10.67;3.00;;;;;;;;;;5046954;28;20178;-74
2023/01/05 15:19:40;;;;;;;11.97;2.83;;;;;;;;;;5040587;28;20264;-74
2023/01/05 15:22:24;;;;;;;13.07;2.70;;;;;;;;;;5028646;28;20218;-75
2023/01/05 15:25:01;;;;;;;9.93;2.83;;;;;;;;;;5038594;28;20186;-75